createdAt,value
2024-02-07T00:01:06.011Z,4.78
2024-02-07T00:03:32.576Z,5.97
2024-02-07T00:05:59.240Z,6.82
2024-02-07T00:08:26.222Z,9.07
2024-02-07T00:10:52.871Z,8.15
2024-02-07T00:13:20.100Z,8.73
2024-02-07T00:15:46.556Z,8.23
2024-02-07T00:18:13.558Z,6.22
2024-02-07T00:20:40.000Z,6.13
2024-02-07T00:23:08.551Z,6.95
2024-02-07T00:25:35.542Z,6.67
2024-02-07T00:28:02.015Z,5.72
2024-02-07T00:30:34.502Z,8.00
2024-02-07T00:33:06.176Z,7.78
2024-02-07T00:35:32.954Z,5.47
2024-02-07T00:37:59.614Z,7.95
2024-02-07T00:40:26.178Z,7.50
2024-02-07T00:42:52.606Z,4.97
2024-02-07T00:45:18.998Z,6.55
2024-02-07T00:47:46.644Z,6.38
2024-02-07T00:50:13.052Z,6.13
2024-02-07T00:52:39.705Z,4.97
2024-02-07T00:55:06.500Z,5.65
2024-02-07T00:57:32.890Z,6.50
2024-02-07T00:59:59.204Z,6.03
2024-02-07T01:02:26.373Z,7.57
2024-02-07T01:04:53.299Z,5.70
2024-02-07T01:07:20.182Z,4.95
2024-02-07T01:09:46.617Z,7.97
2024-02-07T01:12:13.046Z,6.03
2024-02-07T01:14:40.094Z,6.32
2024-02-07T01:17:06.529Z,7.60
2024-02-07T01:19:33.126Z,4.50
2024-02-07T01:21:59.543Z,5.68
2024-02-07T01:24:25.945Z,5.50
2024-02-07T01:26:52.321Z,5.53
2024-02-07T01:29:18.797Z,5.85
2024-02-07T01:31:45.192Z,4.90
2024-02-07T01:34:11.691Z,5.90
2024-02-07T01:36:45.070Z,7.30
2024-02-07T01:39:11.934Z,8.63
2024-02-07T01:41:57.138Z,6.75
2024-02-07T01:44:23.689Z,5.18
2024-02-07T01:46:50.707Z,8.52
2024-02-07T01:49:17.354Z,5.70
2024-02-07T01:51:44.675Z,5.68
2024-02-07T01:54:12.469Z,6.90
2024-02-07T01:56:39.077Z,8.90
2024-02-07T01:59:06.642Z,6.43
2024-02-07T02:01:37.844Z,9.45
2024-02-07T02:04:04.507Z,4.45
2024-02-07T02:06:31.353Z,8.70
2024-02-07T02:08:59.360Z,5.07
2024-02-07T02:11:35.275Z,5.88
2024-02-07T02:14:02.113Z,4.75
2024-02-07T02:16:28.494Z,5.95
2024-02-07T02:18:56.104Z,5.65
2024-02-07T02:21:25.291Z,6.25
2024-02-07T02:23:51.667Z,5.10
2024-02-07T02:26:36.811Z,6.30
2024-02-07T02:29:08.278Z,5.65
2024-02-07T02:31:35.378Z,7.43
2024-02-07T02:34:02.575Z,6.88
2024-02-07T02:36:29.497Z,5.72
2024-02-07T02:38:55.847Z,5.20
2024-02-07T02:41:24.484Z,5.22
2024-02-07T02:43:51.245Z,5.95
2024-02-07T02:46:17.691Z,5.43
2024-02-07T02:48:45.132Z,6.60
2024-02-07T02:51:11.557Z,5.32
2024-02-07T02:53:38.620Z,6.20
2024-02-07T02:56:06.651Z,6.18
2024-02-07T02:58:42.134Z,5.13
2024-02-07T03:01:11.349Z,3.78
2024-02-07T03:03:39.029Z,5.55
2024-02-07T03:06:09.128Z,5.43
2024-02-07T03:08:44.055Z,6.18
2024-02-07T03:11:11.081Z,3.72
2024-02-07T03:13:39.255Z,5.78
2024-02-07T03:16:08.745Z,4.88
2024-02-07T03:18:36.044Z,4.32
2024-02-07T03:21:09.607Z,4.30
2024-02-07T03:23:36.203Z,4.43
2024-02-07T03:26:02.773Z,4.65
2024-02-07T03:28:31.300Z,6.13
2024-02-07T03:30:57.943Z,6.00
2024-02-07T03:33:26.384Z,4.43
2024-02-07T03:35:53.263Z,5.20
2024-02-07T03:38:20.761Z,3.88
2024-02-07T03:40:47.188Z,4.32
2024-02-07T03:43:14.121Z,5.30
2024-02-07T03:45:40.532Z,7.30
2024-02-07T03:48:09.975Z,2.92
2024-02-07T03:50:36.396Z,5.03
2024-02-07T03:53:05.082Z,3.28
2024-02-07T03:55:32.006Z,5.15
2024-02-07T03:58:00.959Z,3.08
2024-02-07T04:00:27.348Z,3.67
2024-02-07T04:02:53.959Z,3.92
2024-02-07T04:05:20.431Z,5.55
2024-02-07T04:07:47.158Z,2.22
2024-02-07T04:10:13.737Z,2.63
2024-02-07T04:12:40.708Z,2.97
2024-02-07T04:15:26.708Z,4.75
2024-02-07T04:18:20.865Z,3.17
2024-02-07T04:21:09.915Z,2.95
2024-02-07T04:23:55.513Z,2.10
2024-02-07T04:26:44.713Z,3.20
2024-02-07T04:29:29.856Z,2.80
2024-02-07T04:32:14.872Z,3.40
2024-02-07T04:34:59.871Z,4.10
2024-02-07T04:37:45.135Z,2.35
2024-02-07T04:40:30.643Z,3.47
2024-02-07T04:43:15.654Z,2.72
2024-02-07T04:46:00.615Z,3.88
2024-02-07T04:48:45.538Z,2.25
2024-02-07T04:51:30.668Z,3.17
2024-02-07T04:54:15.554Z,2.45
2024-02-07T04:57:00.827Z,3.22
2024-02-07T04:59:45.620Z,2.90
2024-02-07T05:02:30.628Z,2.72
2024-02-07T05:05:15.480Z,2.55
2024-02-07T05:08:00.277Z,2.60
2024-02-07T05:10:45.326Z,2.42
2024-02-07T05:13:30.222Z,2.03
2024-02-07T05:15:56.696Z,3.13
2024-02-07T05:18:23.166Z,1.98
2024-02-07T05:20:50.144Z,1.88
2024-02-07T05:23:18.605Z,3.25
2024-02-07T05:25:45.728Z,2.22
2024-02-07T05:28:13.851Z,1.98
2024-02-07T05:30:41.275Z,3.42
2024-02-07T05:33:07.974Z,1.40
2024-02-07T05:35:34.476Z,2.83
2024-02-07T05:38:00.973Z,4.72
2024-02-07T05:40:27.358Z,2.58
2024-02-07T05:42:53.663Z,3.00
2024-02-07T05:45:19.982Z,2.25
2024-02-07T05:47:46.515Z,3.17
2024-02-07T05:50:13.042Z,1.48
2024-02-07T05:52:40.299Z,1.60
2024-02-07T05:55:07.357Z,2.67
2024-02-07T05:57:36.694Z,1.98
2024-02-07T06:00:07.283Z,2.72
2024-02-07T06:02:33.719Z,1.60
2024-02-07T06:05:04.864Z,2.30
2024-02-07T06:07:32.362Z,2.95
2024-02-07T06:09:59.441Z,1.33
2024-02-07T06:12:26.122Z,2.47
2024-02-07T06:14:52.637Z,2.42
2024-02-07T06:17:19.814Z,2.00
2024-02-07T06:19:46.378Z,1.92
2024-02-07T06:22:15.819Z,3.08
2024-02-07T06:24:43.186Z,3.30
2024-02-07T06:27:12.310Z,1.58
2024-02-07T06:29:41.388Z,4.30
2024-02-07T06:32:08.763Z,1.75
2024-02-07T06:34:35.398Z,3.10
2024-02-07T06:37:03.145Z,2.53
2024-02-07T06:39:29.542Z,3.70
2024-02-07T06:41:55.897Z,1.92
2024-02-07T06:44:22.310Z,1.90
2024-02-07T06:46:48.773Z,2.38
2024-02-07T06:49:15.336Z,3.13
2024-02-07T06:51:42.602Z,2.55
2024-02-07T06:54:11.084Z,2.92
2024-02-07T06:56:37.543Z,2.90
2024-02-07T06:59:04.023Z,2.65
2024-02-07T07:01:30.589Z,1.05
2024-02-07T07:03:58.208Z,2.85
2024-02-07T07:06:24.786Z,1.67
2024-02-07T07:08:52.527Z,2.28
2024-02-07T07:11:18.878Z,8.00
2024-02-07T07:13:45.857Z,2.10
2024-02-07T07:16:12.292Z,3.53
2024-02-07T07:18:38.698Z,2.90
2024-02-07T07:21:05.298Z,2.10
2024-02-07T07:23:31.938Z,4.22
2024-02-07T07:25:58.466Z,4.90
2024-02-07T07:28:25.045Z,2.45
2024-02-07T07:30:53.493Z,4.85
2024-02-07T07:33:19.840Z,5.00
2024-02-07T07:35:46.302Z,2.30
2024-02-07T07:38:12.826Z,2.35
2024-02-07T07:40:40.634Z,3.17
2024-02-07T07:43:07.549Z,2.97
2024-02-07T07:45:33.949Z,3.33
2024-02-07T07:48:00.370Z,3.17
2024-02-07T07:50:26.839Z,3.35
2024-02-07T07:52:53.338Z,3.35
2024-02-07T07:55:20.070Z,2.10
2024-02-07T07:57:46.581Z,2.88
2024-02-07T08:00:13.129Z,3.38
2024-02-07T08:02:39.562Z,3.80
2024-02-07T08:05:06.814Z,2.15
2024-02-07T08:07:33.285Z,4.68
2024-02-07T08:09:59.728Z,3.75
2024-02-07T08:12:26.089Z,3.33
2024-02-07T08:14:52.490Z,3.58
2024-02-07T08:17:19.853Z,3.30
2024-02-07T08:19:47.790Z,3.90
2024-02-07T08:22:17.274Z,2.03
2024-02-07T08:24:43.660Z,2.17
2024-02-07T08:27:10.203Z,2.95
2024-02-07T08:29:36.604Z,4.63
2024-02-07T08:32:03.197Z,2.20
2024-02-07T08:34:29.924Z,1.45
2024-02-07T08:36:56.344Z,2.28
2024-02-07T08:39:22.738Z,1.30
2024-02-07T08:41:49.319Z,3.85
2024-02-07T08:44:15.666Z,3.90
2024-02-07T08:46:44.686Z,3.40
2024-02-07T08:49:11.449Z,1.88
2024-02-07T08:51:38.505Z,2.30
2024-02-07T08:54:06.057Z,1.58
2024-02-07T08:56:32.453Z,3.10
2024-02-07T08:58:58.808Z,2.25
2024-02-07T09:01:25.382Z,4.13
2024-02-07T09:03:51.825Z,1.85
2024-02-07T09:06:18.777Z,3.25
2024-02-07T09:08:45.472Z,2.25
2024-02-07T09:11:11.914Z,2.42
2024-02-07T09:13:38.365Z,1.92
2024-02-07T09:16:05.134Z,3.08
2024-02-07T09:18:31.614Z,3.03
2024-02-07T09:20:58.116Z,1.10
2024-02-07T09:23:24.434Z,2.33
2024-02-07T09:25:50.840Z,3.03
2024-02-07T09:28:17.255Z,6.88
2024-02-07T09:30:43.582Z,3.65
2024-02-07T09:33:11.562Z,2.75
2024-02-07T09:35:38.525Z,2.80
2024-02-07T09:38:05.083Z,3.17
2024-02-07T09:40:31.550Z,2.22
2024-02-07T09:42:58.938Z,2.60
2024-02-07T09:45:27.773Z,2.72
2024-02-07T09:48:17.202Z,1.85
2024-02-07T09:50:43.819Z,1.58
2024-02-07T09:53:11.363Z,3.03
2024-02-07T09:55:38.154Z,2.65
2024-02-07T09:58:05.076Z,3.55
2024-02-07T10:00:31.428Z,2.15
2024-02-07T10:02:58.607Z,2.72
2024-02-07T10:05:28.664Z,2.85
2024-02-07T10:07:55.368Z,3.30
2024-02-07T10:10:22.683Z,2.22
2024-02-07T10:12:49.338Z,2.45
2024-02-07T10:15:15.912Z,2.45
2024-02-07T10:17:42.830Z,3.38
2024-02-07T10:20:12.822Z,4.15
2024-02-07T10:22:43.037Z,2.95
2024-02-07T10:25:13.618Z,3.38
2024-02-07T10:27:40.055Z,3.38
2024-02-07T10:30:09.222Z,4.18
2024-02-07T10:32:36.397Z,3.92
2024-02-07T10:35:03.610Z,2.25
2024-02-07T10:37:38.948Z,2.20
2024-02-07T10:40:05.567Z,4.40
2024-02-07T10:42:31.960Z,2.25
2024-02-07T10:45:04.192Z,4.00
2024-02-07T10:47:30.737Z,2.38
2024-02-07T10:49:57.206Z,2.90
2024-02-07T10:52:23.832Z,3.58
2024-02-07T10:54:50.298Z,2.33
2024-02-07T10:57:18.746Z,5.60
2024-02-07T10:59:47.009Z,2.38
2024-02-07T11:02:16.483Z,1.75
2024-02-07T11:04:44.560Z,4.50
2024-02-07T11:07:15.210Z,4.20
2024-02-07T11:09:43.973Z,2.95
2024-02-07T11:12:13.766Z,2.80
2024-02-07T11:14:41.090Z,4.15
2024-02-07T11:17:09.145Z,2.83
2024-02-07T11:19:35.961Z,5.13
2024-02-07T11:22:03.718Z,4.20
2024-02-07T11:24:30.890Z,4.75
2024-02-07T11:26:57.376Z,2.80
2024-02-07T11:29:25.060Z,3.47
2024-02-07T11:31:54.146Z,2.63
2024-02-07T11:34:21.020Z,3.42
2024-02-07T11:36:54.412Z,4.40
2024-02-07T11:39:21.656Z,3.65
2024-02-07T11:41:48.672Z,3.88
2024-02-07T11:44:19.324Z,2.95
2024-02-07T11:46:52.649Z,3.65
2024-02-07T11:49:27.662Z,2.60
2024-02-07T11:52:03.596Z,3.25
2024-02-07T11:54:30.619Z,4.90
2024-02-07T11:56:59.638Z,1.98
2024-02-07T11:59:26.007Z,4.25
2024-02-07T12:01:52.594Z,2.28
2024-02-07T12:04:22.601Z,3.65
2024-02-07T12:06:49.424Z,3.50
2024-02-07T12:09:15.953Z,3.72
2024-02-07T12:11:42.333Z,3.40
2024-02-07T12:14:08.843Z,1.40
2024-02-07T12:16:36.259Z,1.30
2024-02-07T12:19:03.219Z,2.80
2024-02-07T12:21:38.063Z,2.78
2024-02-07T12:24:06.189Z,2.67
2024-02-07T12:26:32.687Z,2.80
2024-02-07T12:29:00.140Z,2.58
2024-02-07T12:31:26.715Z,2.53
2024-02-07T12:33:53.245Z,2.50
2024-02-07T12:36:19.924Z,2.90
2024-02-07T12:38:46.389Z,2.40
2024-02-07T12:41:15.613Z,2.35
2024-02-07T12:43:42.041Z,5.90
2024-02-07T12:46:08.677Z,2.53
2024-02-07T12:48:35.177Z,3.15
2024-02-07T12:51:03.808Z,2.85
2024-02-07T12:53:34.309Z,4.47
2024-02-07T12:56:01.326Z,2.22
2024-02-07T12:58:27.797Z,3.28
2024-02-07T13:01:01.478Z,3.25
2024-02-07T13:03:27.948Z,5.05
2024-02-07T13:05:54.366Z,3.30
2024-02-07T13:08:21.797Z,2.17
2024-02-07T13:10:48.393Z,2.72
2024-02-07T13:13:14.834Z,3.42
2024-02-07T13:15:41.241Z,3.75
2024-02-07T13:18:07.728Z,2.28
2024-02-07T13:20:34.357Z,4.47
2024-02-07T13:23:01.001Z,3.40
2024-02-07T13:25:27.831Z,3.28
2024-02-07T13:27:54.286Z,2.47
2024-02-07T13:30:20.782Z,4.20
2024-02-07T13:32:47.460Z,4.95
2024-02-07T13:35:16.603Z,2.03
2024-02-07T13:37:43.474Z,2.40
2024-02-07T13:40:10.151Z,1.80
2024-02-07T13:42:38.881Z,3.10
2024-02-07T13:45:07.200Z,3.75
2024-02-07T13:47:33.653Z,3.75
2024-02-07T13:50:00.079Z,2.25
2024-02-07T13:52:26.621Z,2.03
2024-02-07T13:54:53.033Z,2.28
2024-02-07T13:57:22.700Z,1.50
2024-02-07T13:59:49.117Z,3.05
2024-02-07T14:02:15.618Z,3.88
2024-02-07T14:04:42.109Z,4.07
2024-02-07T14:07:08.586Z,4.13
2024-02-07T14:09:35.008Z,4.15
2024-02-07T14:12:01.518Z,3.35
2024-02-07T14:14:27.934Z,2.47
2024-02-07T14:16:54.391Z,2.88
2024-02-07T14:19:21.095Z,4.78
2024-02-07T14:21:47.525Z,2.58
2024-02-07T14:24:14.497Z,4.53
2024-02-07T14:26:41.418Z,2.90
2024-02-07T14:29:07.870Z,4.93
2024-02-07T14:31:34.323Z,3.78
2024-02-07T14:34:00.776Z,2.70
2024-02-07T14:36:27.342Z,4.50
2024-02-07T14:38:53.734Z,2.08
2024-02-07T14:41:20.165Z,3.53
2024-02-07T14:43:46.613Z,1.95
2024-02-07T14:46:16.717Z,3.90
2024-02-07T14:48:44.682Z,2.22
2024-02-07T14:51:11.205Z,4.80
2024-02-07T14:53:37.620Z,4.30
2024-02-07T14:56:04.640Z,2.85
2024-02-07T14:58:31.562Z,2.97
2024-02-07T15:00:58.935Z,2.67
2024-02-07T15:03:25.527Z,3.45
2024-02-07T15:05:53.034Z,2.40
2024-02-07T15:08:19.966Z,2.47
2024-02-07T15:10:46.721Z,1.88
2024-02-07T15:13:13.988Z,1.73
2024-02-07T15:15:42.901Z,2.92
2024-02-07T15:18:11.413Z,4.20
2024-02-07T15:20:38.274Z,2.42
2024-02-07T15:23:04.683Z,3.92
2024-02-07T15:25:32.188Z,1.80
2024-02-07T15:27:58.732Z,3.03
2024-02-07T15:30:25.017Z,5.07
2024-02-07T15:32:51.725Z,3.20
2024-02-07T15:35:20.763Z,3.17
2024-02-07T15:37:47.249Z,6.18
2024-02-07T15:40:16.368Z,2.83
2024-02-07T15:42:43.662Z,2.45
2024-02-07T15:45:10.548Z,4.22
2024-02-07T15:47:37.106Z,2.97
2024-02-07T15:50:04.610Z,2.17
2024-02-07T15:52:31.267Z,3.83
2024-02-07T15:54:57.752Z,2.42
2024-02-07T15:57:24.126Z,1.67
2024-02-07T15:59:50.531Z,3.88
2024-02-07T16:02:17.006Z,3.33
2024-02-07T16:04:43.575Z,2.35
2024-02-07T16:07:10.496Z,2.63
2024-02-07T16:09:36.988Z,2.45
2024-02-07T16:12:03.489Z,3.15
2024-02-07T16:14:30.056Z,2.42
2024-02-07T16:16:56.623Z,4.40
2024-02-07T16:19:23.184Z,4.15
2024-02-07T16:21:49.670Z,5.25
2024-02-07T16:24:16.164Z,4.28
2024-02-07T16:26:42.551Z,3.90
2024-02-07T16:29:09.008Z,3.50
2024-02-07T16:31:35.542Z,4.22
2024-02-07T16:34:02.056Z,4.53
2024-02-07T16:36:28.668Z,2.97
2024-02-07T16:38:55.183Z,4.28
2024-02-07T16:41:21.601Z,5.45
2024-02-07T16:43:49.403Z,4.82
2024-02-07T16:46:16.194Z,4.32
2024-02-07T16:48:42.718Z,6.50
2024-02-07T16:51:09.179Z,4.38
2024-02-07T16:53:35.745Z,5.53
2024-02-07T16:56:02.662Z,4.20
2024-02-07T16:58:29.120Z,4.78
2024-02-07T17:00:55.549Z,5.63
2024-02-07T17:03:22.058Z,3.85
2024-02-07T17:05:48.547Z,6.97
2024-02-07T17:08:14.957Z,5.20
2024-02-07T17:10:43.627Z,4.22
2024-02-07T17:13:10.368Z,7.65
2024-02-07T17:15:38.897Z,5.53
2024-02-07T17:18:05.886Z,6.10
2024-02-07T17:20:32.550Z,4.43
2024-02-07T17:22:58.962Z,5.43
2024-02-07T17:25:25.471Z,4.85
2024-02-07T17:27:51.910Z,5.07
2024-02-07T17:30:28.352Z,5.07
2024-02-07T17:33:00.369Z,6.82
2024-02-07T17:35:27.091Z,4.63
2024-02-07T17:37:53.584Z,5.15
2024-02-07T17:40:20.125Z,6.10
2024-02-07T17:42:46.674Z,6.20
2024-02-07T17:45:13.120Z,5.82
2024-02-07T17:47:40.777Z,6.18
2024-02-07T17:50:07.636Z,6.22
2024-02-07T17:52:34.066Z,6.93
2024-02-07T17:55:00.517Z,7.38
2024-02-07T17:57:26.966Z,6.10
2024-02-07T17:59:53.596Z,6.63
2024-02-07T18:02:20.031Z,8.32
2024-02-07T18:04:46.644Z,5.70
2024-02-07T18:07:13.920Z,7.35
2024-02-07T18:09:40.435Z,6.03
2024-02-07T18:12:08.016Z,5.50
2024-02-07T18:14:34.493Z,6.20
2024-02-07T18:17:00.905Z,5.07
2024-02-07T18:19:27.434Z,5.55
2024-02-07T18:21:54.116Z,3.95
2024-02-07T18:24:20.559Z,6.55
2024-02-07T18:26:50.074Z,5.05
2024-02-07T18:29:16.499Z,4.93
2024-02-07T18:31:43.044Z,3.95
2024-02-07T18:34:09.638Z,4.50
2024-02-07T18:36:38.064Z,4.38
2024-02-07T18:39:05.308Z,5.75
2024-02-07T18:41:31.778Z,9.60
2024-02-07T18:43:58.405Z,4.60
2024-02-07T18:46:27.935Z,3.97
2024-02-07T18:48:56.312Z,4.57
2024-02-07T18:51:23.343Z,6.35
2024-02-07T18:53:49.787Z,10.70
2024-02-07T18:56:16.304Z,5.20
2024-02-07T18:58:42.738Z,5.82
2024-02-07T19:01:09.179Z,9.02
2024-02-07T19:03:40.411Z,6.00
2024-02-07T19:06:07.814Z,5.63
2024-02-07T19:08:36.050Z,5.78
2024-02-07T19:11:02.780Z,6.10
2024-02-07T19:13:29.338Z,6.75
2024-02-07T19:15:55.807Z,6.60
2024-02-07T19:18:22.942Z,7.45
2024-02-07T19:20:49.457Z,6.38
2024-02-07T19:23:16.180Z,6.45
2024-02-07T19:25:42.788Z,6.43
2024-02-07T19:28:09.268Z,5.00
2024-02-07T19:30:35.649Z,7.88
2024-02-07T19:33:02.170Z,6.93
2024-02-07T19:35:28.803Z,4.63
2024-02-07T19:37:55.301Z,9.65
2024-02-07T19:40:21.810Z,5.75
2024-02-07T19:42:48.985Z,6.78
2024-02-07T19:45:15.317Z,6.38
2024-02-07T19:47:41.962Z,5.72
2024-02-07T19:50:13.142Z,6.43
2024-02-07T19:52:41.720Z,6.07
2024-02-07T19:55:08.338Z,9.20
2024-02-07T19:57:34.867Z,6.90
2024-02-07T20:00:01.236Z,9.15
2024-02-07T20:02:27.682Z,8.07
2024-02-07T20:04:54.120Z,6.47
2024-02-07T20:07:20.509Z,7.10
2024-02-07T20:09:47.196Z,7.60
2024-02-07T20:12:13.705Z,8.65
2024-02-07T20:14:40.151Z,6.95
2024-02-07T20:17:07.580Z,6.78
2024-02-07T20:19:34.602Z,7.82
2024-02-07T20:22:03.379Z,6.72
2024-02-07T20:24:30.174Z,7.00
2024-02-07T20:26:56.535Z,7.03
2024-02-07T20:29:25.990Z,5.38
2024-02-07T20:31:52.903Z,6.50
2024-02-07T20:34:20.367Z,6.00
2024-02-07T20:36:46.810Z,7.00
2024-02-07T20:39:13.452Z,6.63
2024-02-07T20:41:40.900Z,5.78
2024-02-07T20:44:08.433Z,5.45
2024-02-07T20:46:35.321Z,6.43
2024-02-07T20:49:01.802Z,8.05
2024-02-07T20:51:28.298Z,6.97
2024-02-07T20:53:58.727Z,5.10
2024-02-07T20:56:25.622Z,7.65
2024-02-07T20:58:51.989Z,6.65
2024-02-07T21:01:21.022Z,4.82
2024-02-07T21:03:47.495Z,5.60
2024-02-07T21:06:15.113Z,10.82
2024-02-07T21:08:41.592Z,5.90
2024-02-07T21:11:08.013Z,9.25
2024-02-07T21:13:34.614Z,5.65
2024-02-07T21:16:01.196Z,5.75
2024-02-07T21:18:27.689Z,4.95
2024-02-07T21:20:54.074Z,5.30
2024-02-07T21:23:20.453Z,4.63
2024-02-07T21:25:46.978Z,6.03
2024-02-07T21:28:13.410Z,6.35
2024-02-07T21:30:39.852Z,8.13
2024-02-07T21:33:06.264Z,5.45
2024-02-07T21:35:32.917Z,4.68
2024-02-07T21:37:59.405Z,6.15
2024-02-07T21:40:26.495Z,4.90
2024-02-07T21:42:53.062Z,5.70
2024-02-07T21:45:22.732Z,6.78
2024-02-07T21:47:49.405Z,5.47
2024-02-07T21:50:17.239Z,5.53
2024-02-07T21:52:43.726Z,5.55
2024-02-07T21:55:10.447Z,5.13
2024-02-07T21:57:36.986Z,6.03
2024-02-07T22:00:03.465Z,5.72
2024-02-07T22:02:29.819Z,6.13
2024-02-07T22:04:56.306Z,6.78
2024-02-07T22:07:22.819Z,6.35
2024-02-07T22:09:49.295Z,5.95
2024-02-07T22:12:17.832Z,4.57
2024-02-07T22:14:44.586Z,6.70
2024-02-07T22:17:11.064Z,5.22
2024-02-07T22:19:38.030Z,7.25
2024-02-07T22:22:04.705Z,5.40
2024-02-07T22:24:31.141Z,8.10
2024-02-07T22:26:57.597Z,5.65
2024-02-07T22:29:24.037Z,5.18
2024-02-07T22:31:50.460Z,6.18
2024-02-07T22:34:17.575Z,5.65
2024-02-07T22:36:44.125Z,7.18
2024-02-07T22:39:12.039Z,5.30
2024-02-07T22:41:38.448Z,6.63
2024-02-07T22:44:05.189Z,5.97
2024-02-07T22:46:31.628Z,5.78
2024-02-07T22:48:58.140Z,4.75
2024-02-07T22:51:24.623Z,5.75
2024-02-07T22:53:50.999Z,6.57
2024-02-07T22:56:19.691Z,6.25
2024-02-07T22:58:46.161Z,6.63
2024-02-07T23:01:12.812Z,7.22
2024-02-07T23:03:39.235Z,7.65
2024-02-07T23:06:06.043Z,5.47
2024-02-07T23:08:32.669Z,4.85
2024-02-07T23:10:59.302Z,5.47
2024-02-07T23:13:25.815Z,7.50
2024-02-07T23:15:53.928Z,6.55
2024-02-07T23:18:20.362Z,7.50
2024-02-07T23:20:46.831Z,7.22
2024-02-07T23:23:13.218Z,5.82
2024-02-07T23:25:39.711Z,4.72
2024-02-07T23:28:06.519Z,5.75
2024-02-07T23:30:32.881Z,6.32
2024-02-07T23:32:59.366Z,6.55
2024-02-07T23:35:25.947Z,8.63
2024-02-07T23:37:52.482Z,5.72
2024-02-07T23:40:19.029Z,5.35
2024-02-07T23:42:45.606Z,7.93
2024-02-07T23:45:12.036Z,7.03
2024-02-07T23:47:40.212Z,6.38
2024-02-07T23:50:07.447Z,6.63
2024-02-07T23:52:35.778Z,5.95
2024-02-07T23:55:02.901Z,5.60
2024-02-07T23:57:29.315Z,5.72
2024-02-07T23:59:55.714Z,6.97
